Mardan Weather



Mardan's Current Weather

Temprature 14o haze

haze

Rain: 0 %

Min Temprature14o
Max Temprature14o
Humidity58
Wind Speed2.1 m/h
Sun Rise06:27:59
Sun Set17:22:57
Current Time: 28-Oct-2020 07:59:08
Lat/Lon: 34.2, 72.05




Mardan's Geo Location



Mardan's Weather Forecast

Time Overall Temp Min Temp Max Temp Humidity Wind Speed Rain
28-Oct-2020 (Wed)
08:00:00 few clouds 16.690 16.690 19.510 42 0.44 m/h 0 %
11:00:00 clear sky 23.280 23.280 25.840 27 1.03 m/h 0 %
14:00:00 clear sky 28.270 28.270 29.250 16 0.83 m/h 0 %
17:00:00 clear sky 25.240 25.240 25.330 20 1.13 m/h 0 %
20:00:00 clear sky 21.520 21.520 21.520 23 2.25 m/h 0 %
23:00:00 clear sky 19.390 19.390 19.390 26 1.86 m/h 0 %
29-Oct-2020 (Thu)
02:00:00 clear sky 17.860 17.860 17.860 28 1.37 m/h 0 %
05:00:00 clear sky 16.760 16.760 16.760 30 0.9 m/h 0 %
08:00:00 clear sky 19.660 19.660 19.660 26 1.01 m/h 0 %
11:00:00 clear sky 25.930 25.930 25.930 18 1.71 m/h 0 %
14:00:00 clear sky 29.020 29.020 29.020 15 2 m/h 0 %
17:00:00 clear sky 24.930 24.930 24.930 20 0.45 m/h 0 %
20:00:00 clear sky 20.900 20.900 20.900 23 1.38 m/h 0 %
23:00:00 clear sky 18.750 18.750 18.750 27 1.98 m/h 0 %
30-Oct-2020 (Fri)
02:00:00 clear sky 17.100 17.100 17.100 30 1.7 m/h 0 %
05:00:00 clear sky 15.980 15.980 15.980 32 1.57 m/h 0 %
08:00:00 clear sky 18.800 18.800 18.800 27 1.31 m/h 0 %
11:00:00 clear sky 25.920 25.920 25.920 17 2.52 m/h 0 %
14:00:00 clear sky 29.680 29.680 29.680 13 2.69 m/h 0 %
17:00:00 clear sky 25.210 25.210 25.210 16 1.93 m/h 0 %
20:00:00 clear sky 20.560 20.560 20.560 21 1.16 m/h 0 %
23:00:00 clear sky 18.150 18.150 18.150 25 1.2 m/h 0 %
31-Oct-2020 (Sat)
02:00:00 clear sky 16.170 16.170 16.170 28 1.34 m/h 0 %
05:00:00 clear sky 14.960 14.960 14.960 30 1.49 m/h 0 %
08:00:00 clear sky 18.240 18.240 18.240 26 1.49 m/h 0 %
11:00:00 clear sky 25.630 25.630 25.630 16 2.7 m/h 0 %
14:00:00 clear sky 30.280 30.280 30.280 11 3.33 m/h 0 %
17:00:00 clear sky 25.470 25.470 25.470 15 3.13 m/h 0 %
20:00:00 clear sky 20.590 20.590 20.590 19 1.51 m/h 0 %
23:00:00 clear sky 18.010 18.010 18.010 23 1.12 m/h 0 %
01-Nov-2020 (Sun)
02:00:00 clear sky 15.990 15.990 15.990 26 1.4 m/h 0 %
05:00:00 clear sky 14.660 14.660 14.660 28 1.28 m/h 0 %
08:00:00 clear sky 18.050 18.050 18.050 25 1.47 m/h 0 %
11:00:00 clear sky 25.800 25.800 25.800 15 2.7 m/h 0 %
14:00:00 clear sky 30.570 30.570 30.570 11 3.07 m/h 0 %
17:00:00 clear sky 25.770 25.770 25.770 15 2.99 m/h 0 %
20:00:00 clear sky 20.840 20.840 20.840 19 1.36 m/h 0 %
23:00:00 clear sky 18.220 18.220 18.220 23 1.77 m/h 0 %
02-Nov-2020 (Mon)
02:00:00 clear sky 16.220 16.220 16.220 26 1.4 m/h 0 %
05:00:00 clear sky 14.860 14.860 14.860 28 1.02 m/h 0 %

Famous Cities (60)